Time;durP1;ratioP1;P1;durP2;ratioP2;P2;SDS_P1;SDS_P2;PMS_P1;PMS_P2;Temp;Humidity;BMP_temperature;BMP_pressure;BME280_temperature;BME280_humidity;BME280_pressure;Samples;Min_cycle;Max_cycle;Signal;HPM_P1;HPM_P2
2021/05/17 00:02:07;;;;;;;7.18;5.97;;;18.80;58.40;;;;;;6174545;23;20139;-78
2021/05/17 00:04:35;;;;;;;6.55;5.70;;;18.80;58.40;;;;;;6149417;23;20144;-78
2021/05/17 00:07:07;;;;;;;8.20;6.00;;;18.80;58.40;;;;;;6173437;23;20163;-78
2021/05/17 00:09:34;;;;;;;6.88;6.00;;;18.80;58.30;;;;;;6199975;23;20138;-78
2021/05/17 00:12:01;;;;;;;7.10;6.10;;;18.80;58.30;;;;;;6200287;23;20134;-79
2021/05/17 00:14:28;;;;;;;9.10;5.88;;;18.80;58.40;;;;;;6199985;23;20166;-78
2021/05/17 00:16:55;;;;;;;7.13;5.78;;;18.80;58.50;;;;;;6199672;23;20135;-78
2021/05/17 00:19:22;;;;;;;7.68;5.82;;;18.70;58.30;;;;;;6200035;23;20131;-78
2021/05/17 00:21:49;;;;;;;7.88;6.43;;;18.70;58.30;;;;;;6199510;23;20563;-78
2021/05/17 00:24:17;;;;;;;8.00;6.20;;;18.70;58.30;;;;;;6174335;23;20192;-78
2021/05/17 00:26:44;;;;;;;7.72;6.40;;;18.70;58.40;;;;;;6174143;23;20181;-78
2021/05/17 00:29:11;;;;;;;7.00;5.93;;;18.70;58.50;;;;;;6200398;23;20131;-78
2021/05/17 00:31:38;;;;;;;8.57;5.40;;;18.70;58.60;;;;;;6173163;23;20203;-78
2021/05/17 00:34:06;;;;;;;7.22;5.60;;;18.70;58.60;;;;;;6199351;23;20194;-78
2021/05/17 00:36:32;;;;;;;7.80;6.13;;;18.70;58.60;;;;;;6173712;23;20461;-78
2021/05/17 00:38:59;;;;;;;7.78;5.53;;;18.70;58.60;;;;;;6148715;23;20143;-79
2021/05/17 00:41:27;;;;;;;7.45;5.97;;;18.70;58.60;;;;;;6199678;23;20178;-78
2021/05/17 00:43:54;;;;;;;9.05;6.13;;;18.70;58.60;;;;;;6199765;23;20198;-78
2021/05/17 00:46:20;;;;;;;7.05;5.75;;;18.70;58.60;;;;;;6173499;23;20170;-78
2021/05/17 00:48:48;;;;;;;6.20;5.40;;;18.70;58.60;;;;;;6199876;23;20131;-78
2021/05/17 00:51:14;;;;;;;7.45;6.15;;;18.70;58.60;;;;;;6199649;23;20217;-78
2021/05/17 00:53:41;;;;;;;7.75;6.20;;;18.70;58.60;;;;;;6173659;23;20131;-78
2021/05/17 00:56:08;;;;;;;7.15;5.93;;;18.70;58.80;;;;;;6173191;23;20143;-78
2021/05/17 00:58:34;;;;;;;6.65;5.75;;;18.70;58.70;;;;;;6199481;23;20206;-78
2021/05/17 01:01:09;;;;;;;6.55;5.45;;;18.70;58.70;;;;;;6173642;23;20146;-78
2021/05/17 01:03:36;;;;;;;7.32;6.28;;;18.60;58.70;;;;;;6173164;23;20160;-78
2021/05/17 01:06:03;;;;;;;7.80;6.10;;;18.60;58.60;;;;;;6172655;23;20173;-79
2021/05/17 01:08:55;;;;;;;8.48;5.85;;;18.70;58.70;;;;;;6173226;23;20137;-78
2021/05/17 01:11:30;;;;;;;7.63;5.97;;;18.60;58.80;;;;;;6172163;23;20217;-78
2021/05/17 01:13:59;;;;;;;6.45;5.45;;;18.60;58.70;;;;;;6199075;23;20138;-78
2021/05/17 01:16:25;;;;;;;7.00;5.63;;;18.60;58.60;;;;;;6198882;23;20566;-78
2021/05/17 01:18:52;;;;;;;8.05;6.57;;;18.70;58.70;;;;;;6173808;23;20137;-78
2021/05/17 01:21:19;;;;;;;7.22;5.93;;;18.70;58.60;;;;;;6199917;23;20181;-78
2021/05/17 01:23:55;;;;;;;7.72;6.05;;;18.70;58.70;;;;;;6199300;23;20131;-78
2021/05/17 01:26:24;;;;;;;7.22;5.88;;;18.60;58.70;;;;;;6199643;23;20217;-78
2021/05/17 01:28:56;;;;;;;7.43;6.20;;;18.60;58.70;;;;;;6173381;23;20178;-78
2021/05/17 01:31:30;;;;;;;7.20;5.88;;;18.60;58.70;;;;;;6174221;23;20131;-80
2021/05/17 01:33:56;;;;;;;7.25;6.20;;;18.60;58.70;;;;;;6199174;23;20185;-78
2021/05/17 01:36:25;;;;;;;6.90;5.95;;;18.60;58.70;;;;;;6173172;23;20241;-78
2021/05/17 01:38:52;;;;;;;8.25;5.97;;;18.60;58.70;;;;;;6199994;23;20142;-78
2021/05/17 01:41:20;;;;;;;7.63;6.07;;;18.60;58.70;;;;;;6173984;23;20138;-78
2021/05/17 01:43:48;;;;;;;7.75;6.05;;;18.60;58.70;;;;;;6149332;23;20130;-78
2021/05/17 01:46:20;;;;;;;6.80;5.40;;;18.60;58.70;;;;;;6199638;23;20714;-78
2021/05/17 01:48:55;;;;;;;7.45;5.85;;;18.60;58.70;;;;;;6199446;23;20141;-78
2021/05/17 01:51:22;;;;;;;7.47;5.38;;;18.60;58.70;;;;;;6173240;23;20131;-78
2021/05/17 01:53:49;;;;;;;7.70;6.13;;;18.60;58.70;;;;;;6173870;23;20177;-78
2021/05/17 01:56:17;;;;;;;7.25;6.25;;;18.60;58.70;;;;;;6200256;23;20138;-78
2021/05/17 01:58:51;;;;;;;7.10;5.93;;;18.60;58.60;;;;;;6173744;23;20222;-78
2021/05/17 02:01:18;;;;;;;6.95;6.07;;;18.60;58.60;;;;;;6199511;23;20131;-78
2021/05/17 02:03:49;;;;;;;7.18;6.18;;;18.60;58.70;;;;;;6199164;23;20603;-78
2021/05/17 02:06:25;;;;;;;6.85;5.60;;;18.60;58.70;;;;;;6173523;23;20193;-78
2021/05/17 02:08:51;;;;;;;8.85;6.22;;;18.60;58.60;;;;;;6201447;23;20503;-78
2021/05/17 02:11:20;;;;;;;6.95;5.50;;;18.60;58.60;;;;;;6200814;23;20131;-78
2021/05/17 02:13:47;;;;;;;7.18;5.60;;;18.60;58.60;;;;;;6175083;23;20135;-78
2021/05/17 02:16:14;;;;;;;6.65;5.72;;;18.60;58.70;;;;;;6201157;23;20135;-78
2021/05/17 02:18:42;;;;;;;7.63;5.80;;;18.50;58.50;;;;;;6175563;23;20127;-78
2021/05/17 02:21:18;;;;;;;8.10;5.82;;;18.60;58.70;;;;;;6175255;23;20158;-78
2021/05/17 02:23:43;;;;;;;6.80;5.88;;;18.60;58.60;;;;;;6174766;23;20181;-78
2021/05/17 02:26:11;;;;;;;6.65;5.60;;;18.60;58.60;;;;;;6174382;23;20167;-78
2021/05/17 02:28:38;;;;;;;7.43;5.90;;;18.50;58.60;;;;;;6174657;23;20139;-78
2021/05/17 02:31:05;;;;;;;6.65;5.47;;;18.50;58.60;;;;;;6201185;23;20136;-78
2021/05/17 02:33:31;;;;;;;6.35;5.53;;;18.50;58.50;;;;;;6174164;23;20246;-78
2021/05/17 02:35:57;;;;;;;8.95;6.10;;;18.50;58.60;;;;;;6173805;23;20142;-79
2021/05/17 02:38:23;;;;;;;6.90;5.40;;;18.50;58.60;;;;;;6174951;23;20466;-78
2021/05/17 02:40:52;;;;;;;7.15;5.78;;;18.50;58.50;;;;;;6201100;23;20115;-78
2021/05/17 02:43:21;;;;;;;7.28;5.70;;;18.50;58.60;;;;;;6149880;23;20222;-78
2021/05/17 02:45:48;;;;;;;6.57;5.63;;;18.50;58.70;;;;;;6174738;23;20463;-78
2021/05/17 02:48:28;;;;;;;7.80;6.20;;;18.50;58.60;;;;;;6175930;23;20207;-78
2021/05/17 02:50:55;;;;;;;9.63;6.32;;;18.50;58.70;;;;;;6200921;23;20667;-79
2021/05/17 02:53:50;;;;;;;8.23;6.18;;;18.50;58.70;;;;;;6175315;23;20127;-78
2021/05/17 02:56:36;;;;;;;9.15;6.00;;;18.50;58.70;;;;;;6200984;23;20178;-78
2021/05/17 02:59:06;;;;;;;7.32;5.85;;;18.50;58.60;;;;;;6200856;23;20131;-78
2021/05/17 03:01:58;;;;;;;7.45;6.20;;;18.50;58.70;;;;;;6201224;23;20218;-78
2021/05/17 03:04:25;;;;;;;7.63;6.00;;;18.50;58.70;;;;;;6199933;23;20138;-79
2021/05/17 03:07:30;;;;;;;6.68;5.97;;;18.50;58.80;;;;;;6175198;23;20166;-78
2021/05/17 03:09:58;;;;;;;7.88;5.68;;;18.50;58.80;;;;;;6173489;23;20137;-78
2021/05/17 03:12:23;;;;;;;7.65;6.05;;;18.40;58.70;;;;;;6150243;23;20135;-78
2021/05/17 03:14:50;;;;;;;6.40;5.70;;;18.50;58.80;;;;;;6174616;23;20189;-78
2021/05/17 03:17:25;;;;;;;8.52;6.00;;;18.50;58.80;;;;;;6150136;23;20135;-78
2021/05/17 03:19:52;;;;;;;7.15;5.78;;;18.50;58.80;;;;;;6174625;23;20190;-79
2021/05/17 03:22:19;;;;;;;7.43;6.22;;;18.50;58.80;;;;;;6201040;23;20131;-78
2021/05/17 03:24:53;;;;;;;7.18;5.72;;;18.50;58.70;;;;;;6174598;23;20142;-79
2021/05/17 03:27:24;;;;;;;6.72;5.63;;;18.50;58.80;;;;;;6200596;23;20166;-78
2021/05/17 03:29:50;;;;;;;7.72;6.13;;;18.50;58.90;;;;;;6200041;23;20189;-78
2021/05/17 03:32:19;;;;;;;7.13;5.68;;;18.40;58.80;;;;;;6200491;23;20139;-78
2021/05/17 03:34:46;;;;;;;6.90;5.97;;;18.40;58.80;;;;;;6200360;23;20557;-78
2021/05/17 03:37:12;;;;;;;7.32;6.18;;;18.40;58.90;;;;;;6173943;23;20135;-78
2021/05/17 03:39:46;;;;;;;7.03;5.80;;;18.40;58.90;;;;;;6200249;23;20581;-78
2021/05/17 03:42:13;;;;;;;8.02;5.68;;;18.40;58.90;;;;;;6200223;23;20134;-78
2021/05/17 03:44:40;;;;;;;8.20;5.95;;;18.40;58.90;;;;;;6150261;23;20135;-78
2021/05/17 03:47:05;;;;;;;7.72;5.78;;;18.40;58.90;;;;;;6149517;23;20171;-78
2021/05/17 03:49:31;;;;;;;7.60;6.00;;;18.40;58.90;;;;;;6174211;23;20198;-78
2021/05/17 03:51:57;;;;;;;6.90;5.50;;;18.40;58.90;;;;;;6175307;23;20131;-78
2021/05/17 03:54:22;;;;;;;10.20;6.10;;;18.40;58.90;;;;;;6200522;23;20150;-78
2021/05/17 03:56:57;;;;;;;6.70;5.57;;;18.40;58.90;;;;;;6200303;23;20162;-78
2021/05/17 03:59:25;;;;;;;7.03;5.45;;;18.40;58.80;;;;;;6200347;23;20122;-78
2021/05/17 04:01:50;;;;;;;7.75;5.90;;;18.40;58.80;;;;;;6150257;23;20142;-78
2021/05/17 04:04:21;;;;;;;6.88;5.68;;;18.40;58.90;;;;;;6125147;23;20545;-78
2021/05/17 04:14:49;;;;;;;7.78;5.80;;;18.40;58.90;;;;;;6200249;23;20209;-78
2021/05/17 04:17:16;;;;;;;6.32;5.40;;;18.40;58.90;;;;;;6200331;23;20169;-78
2021/05/17 04:19:42;;;;;;;7.18;5.85;;;18.40;58.80;;;;;;6200805;23;20143;-78
2021/05/17 04:22:10;;;;;;;7.47;5.70;;;18.40;58.80;;;;;;6174782;23;20571;-78
2021/05/17 04:24:38;;;;;;;8.52;5.85;;;18.40;58.90;;;;;;6174189;23;20610;-78
2021/05/17 04:27:05;;;;;;;7.53;5.63;;;18.40;58.80;;;;;;6200268;23;20171;-78
2021/05/17 04:29:31;;;;;;;7.13;5.65;;;18.40;58.90;;;;;;6200569;23;20136;-78
2021/05/17 04:31:57;;;;;;;6.35;5.13;;;18.40;58.80;;;;;;6199601;23;20147;-78
2021/05/17 04:34:23;;;;;;;7.07;5.60;;;18.40;58.80;;;;;;6199125;23;20522;-79
2021/05/17 04:36:50;;;;;;;7.35;5.95;;;18.40;58.80;;;;;;6199570;23;20142;-78
2021/05/17 04:39:16;;;;;;;7.15;5.90;;;18.40;58.80;;;;;;6174417;23;20135;-78
2021/05/17 04:41:41;;;;;;;7.85;6.10;;;18.40;58.80;;;;;;6200142;23;20582;-78
2021/05/17 04:44:08;;;;;;;7.53;5.63;;;18.40;58.70;;;;;;6200843;23;20131;-78
2021/05/17 04:46:43;;;;;;;7.68;6.07;;;18.40;58.70;;;;;;6199792;23;20173;-78
2021/05/17 04:49:09;;;;;;;7.65;5.80;;;18.40;58.80;;;;;;6200450;23;20137;-78
2021/05/17 04:51:43;;;;;;;6.85;5.40;;;18.40;58.90;;;;;;6173482;23;20130;-78
2021/05/17 04:54:12;;;;;;;7.03;5.50;;;18.40;58.80;;;;;;6173476;23;20137;-78
2021/05/17 04:56:38;;;;;;;6.85;5.78;;;18.50;58.80;;;;;;6200245;23;20137;-78
2021/05/17 04:59:10;;;;;;;6.20;5.57;;;18.40;58.90;;;;;;6200216;23;20131;-78
2021/05/17 05:01:38;;;;;;;6.95;5.85;;;18.40;58.90;;;;;;6174059;23;20131;-79
2021/05/17 05:04:10;;;;;;;7.07;5.90;;;18.40;58.80;;;;;;6149048;23;20201;-79
2021/05/17 05:06:36;;;;;;;7.13;5.70;;;18.40;58.70;;;;;;6172758;23;20632;-78
2021/05/17 05:09:02;;;;;;;6.40;5.05;;;18.40;58.90;;;;;;6172871;23;20137;-79
2021/05/17 05:11:30;;;;;;;6.57;5.45;;;18.40;58.90;;;;;;6124748;23;20142;-78
2021/05/17 05:13:59;;;;;;;7.20;5.60;;;18.40;58.90;;;;;;6200066;23;20127;-78
2021/05/17 05:16:31;;;;;;;6.88;5.50;;;18.40;58.80;;;;;;6199629;23;20143;-78
2021/05/17 05:18:59;;;;;;;6.32;5.32;;;18.40;58.90;;;;;;6200695;23;20138;-78
2021/05/17 05:21:24;;;;;;;6.68;5.45;;;18.40;58.80;;;;;;6199883;23;20131;-79
2021/05/17 05:23:51;;;;;;;7.55;5.65;;;18.40;58.80;;;;;;6174622;23;20138;-78
2021/05/17 05:29:12;;;;;;;6.78;5.47;;;18.40;58.90;;;;;;6175236;23;20142;-78
2021/05/17 05:31:53;;;;;;;6.97;5.63;;;18.40;58.90;;;;;;6176638;23;20178;-78
2021/05/17 05:34:22;;;;;;;7.30;5.50;;;18.40;58.90;;;;;;6176327;23;20206;-78
2021/05/17 05:36:49;;;;;;;7.03;5.80;;;18.40;58.60;;;;;;6199173;23;20131;-78
2021/05/17 05:39:23;;;;;;;6.65;5.60;;;18.40;58.90;;;;;;6199851;23;20145;-78
2021/05/17 05:41:55;;;;;;;6.93;5.95;;;18.40;58.90;;;;;;6201058;23;20138;-78
2021/05/17 05:44:21;;;;;;;6.53;5.28;;;18.40;58.90;;;;;;6201810;23;20468;-78
2021/05/17 05:46:48;;;;;;;7.45;5.40;;;18.40;58.90;;;;;;6202481;23;20173;-78
2021/05/17 05:49:14;;;;;;;6.90;5.55;;;18.40;58.90;;;;;;6201673;23;20151;-78
2021/05/17 05:51:44;;;;;;;7.82;5.82;;;18.40;58.90;;;;;;6201854;23;20209;-78
2021/05/17 05:54:18;;;;;;;6.75;5.85;;;18.40;58.90;;;;;;6201627;23;20219;-78
2021/05/17 05:56:44;;;;;;;7.63;6.30;;;18.40;58.90;;;;;;6176622;23;20213;-79
2021/05/17 05:59:11;;;;;;;7.07;5.78;;;18.40;58.90;;;;;;6174709;23;20127;-78
2021/05/17 06:01:37;;;;;;;6.03;5.43;;;18.40;58.90;;;;;;6175671;23;20142;-78
2021/05/17 06:04:04;;;;;;;6.70;5.57;;;18.40;58.90;;;;;;6201833;23;20132;-79
2021/05/17 06:06:30;;;;;;;6.80;5.80;;;18.40;58.90;;;;;;6202198;23;20191;-78
2021/05/17 06:08:56;;;;;;;7.40;5.45;;;18.40;58.90;;;;;;6200955;23;20213;-79
2021/05/17 06:11:22;;;;;;;6.68;5.90;;;18.40;58.90;;;;;;6200563;23;20131;-78
2021/05/17 06:13:50;;;;;;;6.63;5.65;;;18.40;59.00;;;;;;6174371;23;20147;-78
2021/05/17 06:16:16;;;;;;;7.20;5.72;;;18.40;58.90;;;;;;6201736;23;20138;-78
2021/05/17 06:18:43;;;;;;;6.95;5.82;;;18.40;58.90;;;;;;6173826;23;20131;-79
2021/05/17 06:21:10;;;;;;;6.35;5.28;;;18.40;58.90;;;;;;6174266;23;20143;-79
2021/05/17 06:23:39;;;;;;;6.55;5.28;;;18.40;58.90;;;;;;6200178;23;20135;-78
2021/05/17 06:26:05;;;;;;;7.55;5.18;;;18.40;58.90;;;;;;6173725;23;20170;-78
2021/05/17 06:28:31;;;;;;;7.05;5.93;;;18.40;58.90;;;;;;6169657;23;20456;-78
2021/05/17 06:31:00;;;;;;;8.48;5.43;;;18.40;58.80;;;;;;6172060;23;20147;-78
2021/05/17 06:33:26;;;;;;;6.60;5.88;;;18.40;58.90;;;;;;6172614;23;20205;-78
2021/05/17 06:35:55;;;;;;;6.15;5.43;;;18.40;58.80;;;;;;6198533;23;20127;-79
2021/05/17 06:38:21;;;;;;;6.70;5.53;;;18.40;58.80;;;;;;6123538;23;20201;-78
2021/05/17 06:40:47;;;;;;;7.10;5.95;;;18.40;58.70;;;;;;6168795;23;20139;-78
2021/05/17 06:43:15;;;;;;;6.45;5.75;;;18.40;58.70;;;;;;6198030;23;20146;-79
2021/05/17 06:45:44;;;;;;;7.95;5.82;;;18.50;58.70;;;;;;6198966;23;20158;-79
2021/05/17 06:48:18;;;;;;;7.47;6.25;;;18.50;59.40;;;;;;6201863;23;20158;-79
2021/05/17 06:50:45;;;;;;;8.80;5.60;;;18.50;58.70;;;;;;6151354;23;20131;-77
2021/05/17 06:53:11;;;;;;;6.28;5.55;;;18.50;58.70;;;;;;6174437;23;20238;-78
2021/05/17 07:00:32;;;;;;;6.40;5.47;;;18.50;58.80;;;;;;6200487;23;20252;-80
2021/05/17 07:02:59;;;;;;;7.15;5.70;;;18.50;58.70;;;;;;6196614;23;20187;-81
2021/05/17 07:05:25;;;;;;;6.50;5.53;;;18.50;58.70;;;;;;6147708;23;20154;-83
2021/05/17 07:13:15;;;;;;;7.93;5.70;;;18.60;58.40;;;;;;6156872;23;20141;-81
2021/05/17 07:15:41;;;;;;;7.93;5.82;;;18.70;58.40;;;;;;6125607;23;20198;-82
2021/05/17 07:18:13;;;;;;;6.88;5.88;;;18.70;58.40;;;;;;6148968;23;20150;-81
2021/05/17 07:26:03;;;;;;;7.22;5.30;;;18.60;58.50;;;;;;6158237;23;20145;-82
2021/05/17 07:28:29;;;;;;;6.00;5.32;;;18.60;58.60;;;;;;6148352;23;20201;-83
2021/05/17 07:30:56;;;;;;;5.90;5.30;;;18.60;58.50;;;;;;6122956;23;20158;-78
2021/05/17 07:33:22;;;;;;;6.65;5.47;;;18.70;58.60;;;;;;6123158;23;20289;-80
2021/05/17 07:35:53;;;;;;;7.68;5.75;;;18.60;58.70;;;;;;6124758;23;20529;-80
2021/05/17 07:38:22;;;;;;;7.70;5.80;;;18.70;58.50;;;;;;6118023;23;20142;-77
2021/05/17 07:40:48;;;;;;;7.13;5.35;;;18.70;58.50;;;;;;6140891;23;20130;-78
2021/05/17 07:43:13;;;;;;;7.30;5.85;;;18.70;58.40;;;;;;6170530;23;20135;-80
2021/05/17 07:45:40;;;;;;;6.22;5.30;;;18.70;58.50;;;;;;6170051;23;20127;-78
2021/05/17 07:48:09;;;;;;;8.68;5.53;;;18.70;58.50;;;;;;6167617;23;20190;-79
2021/05/17 07:50:35;;;;;;;8.57;5.57;;;18.70;58.70;;;;;;6171429;23;20214;-78
2021/05/17 07:53:01;;;;;;;9.65;5.63;;;18.70;58.60;;;;;;6196420;23;20138;-79
2021/05/17 07:55:54;;;;;;;8.48;5.90;;;18.70;58.60;;;;;;6196307;23;20172;-84
2021/05/17 07:58:22;;;;;;;8.35;5.82;;;18.70;58.70;;;;;;6158522;23;20214;-80
2021/05/17 08:00:50;;;;;;;11.77;6.13;;;18.70;58.70;;;;;;6148191;23;20138;-80
2021/05/17 08:03:23;;;;;;;11.15;5.50;;;18.70;58.70;;;;;;6196747;23;20157;-82
2021/05/17 08:05:50;;;;;;;8.70;6.25;;;18.70;58.80;;;;;;6149350;23;20127;-81
2021/05/17 08:08:28;;;;;;;10.13;5.88;;;18.70;58.70;;;;;;6126836;23;20618;-82
2021/05/17 08:11:00;;;;;;;14.85;6.50;;;18.70;59.40;;;;;;6132267;23;20158;-81
2021/05/17 08:13:29;;;;;;;11.57;5.78;;;18.70;58.80;;;;;;6156623;23;20138;-82
2021/05/17 08:15:58;;;;;;;11.38;6.30;;;18.70;58.80;;;;;;6133710;23;20146;-81
2021/05/17 08:19:15;;;;;;;11.93;6.60;;;18.70;58.80;;;;;;6134306;23;20191;-80
2021/05/17 08:21:41;;;;;;;14.68;5.90;;;18.70;58.90;;;;;;6114044;23;20150;-81
2021/05/17 08:24:10;;;;;;;18.75;6.47;;;18.70;58.70;;;;;;6126551;23;20182;-80
2021/05/17 08:26:37;;;;;;;18.67;6.10;;;18.80;58.80;;;;;;6148424;23;20171;-81
2021/05/17 08:29:03;;;;;;;21.35;6.72;;;18.70;58.80;;;;;;6124096;23;20146;-81
2021/05/17 08:31:31;;;;;;;27.20;6.80;;;18.70;58.80;;;;;;6125129;23;20146;-79
2021/05/17 08:33:57;;;;;;;22.60;6.57;;;18.70;58.80;;;;;;6148854;23;20277;-80
2021/05/17 08:36:27;;;;;;;14.38;6.55;;;18.70;58.90;;;;;;6173883;23;20463;-82
2021/05/17 08:39:07;;;;;;;19.73;7.00;;;18.70;58.90;;;;;;6123022;23;20146;-81
2021/05/17 08:44:57;;;;;;;18.02;6.75;;;18.70;59.00;;;;;;6197727;23;20162;-82
2021/05/17 08:47:45;;;;;;;16.17;5.90;;;18.70;59.10;;;;;;6147395;23;20167;-81
2021/05/17 08:50:19;;;;;;;13.60;6.53;;;18.80;59.10;;;;;;6125518;23;20201;-83
2021/05/17 08:52:54;;;;;;;15.00;6.43;;;18.80;59.10;;;;;;6148854;23;20198;-84
2021/05/17 08:55:48;;;;;;;13.68;5.65;;;18.80;59.20;;;;;;6124523;23;20134;-81
2021/05/17 08:58:57;;;;;;;14.23;5.93;;;18.80;59.10;;;;;;6148271;23;20284;-80
2021/05/17 09:01:23;;;;;;;13.85;6.68;;;18.80;59.10;;;;;;6197997;23;20277;-82
2021/05/17 09:04:03;;;;;;;17.65;6.32;;;18.80;59.80;;;;;;6123139;23;20147;-82
2021/05/17 09:06:39;;;;;;;12.75;6.30;;;18.90;59.20;;;;;;6171500;23;20170;-81
2021/05/17 09:09:26;;;;;;;11.77;6.10;;;18.90;59.20;;;;;;6171239;23;20173;-81
2021/05/17 09:11:55;;;;;;;9.52;5.93;;;18.80;59.80;;;;;;6172947;23;20149;-81
2021/05/17 09:14:21;;;;;;;13.55;5.80;;;18.80;59.30;;;;;;6125195;23;20138;-81
2021/05/17 09:16:51;;;;;;;14.98;6.20;;;18.80;59.20;;;;;;6172563;23;20154;-81
2021/05/17 09:19:18;;;;;;;14.05;6.38;;;18.80;59.20;;;;;;6173797;23;20182;-82
2021/05/17 09:22:11;;;;;;;15.52;5.93;;;18.80;59.20;;;;;;6148366;23;20170;-81
2021/05/17 09:24:46;;;;;;;16.65;6.43;;;18.80;59.40;;;;;;6149043;23;20169;-81
2021/05/17 09:27:26;;;;;;;18.85;6.18;;;18.90;59.30;;;;;;6125621;23;20166;-81
2021/05/17 09:30:03;;;;;;;16.30;6.43;;;18.80;59.30;;;;;;6125040;23;20171;-81
2021/05/17 09:32:38;;;;;;;15.13;6.53;;;18.80;59.30;;;;;;6152213;23;20134;-81
2021/05/17 09:35:07;;;;;;;17.65;6.28;;;18.80;59.30;;;;;;6149130;23;20198;-80
2021/05/17 09:37:56;;;;;;;12.32;5.90;;;18.80;59.30;;;;;;6124596;23;20154;-81
2021/05/17 09:40:23;;;;;;;11.10;5.70;;;18.80;59.30;;;;;;6126595;23;20147;-81
2021/05/17 09:43:05;;;;;;;10.13;5.63;;;18.80;59.30;;;;;;6174366;23;20135;-81
2021/05/17 09:45:44;;;;;;;15.00;6.30;;;18.80;59.30;;;;;;6127325;23;20151;-83
2021/05/17 09:48:12;;;;;;;18.45;6.10;;;18.90;59.30;;;;;;6150319;23;20193;-81
2021/05/17 09:51:02;;;;;;;11.45;6.15;;;18.80;59.20;;;;;;6150843;23;20131;-81
2021/05/17 09:53:46;;;;;;;15.25;6.13;;;18.90;59.30;;;;;;6174869;23;20154;-80
2021/05/17 09:56:18;;;;;;;11.63;6.13;;;18.80;59.30;;;;;;6174880;23;20567;-81
2021/05/17 09:58:46;;;;;;;11.85;6.45;;;18.80;59.30;;;;;;6198505;23;20128;-82
2021/05/17 10:01:16;;;;;;;10.88;6.30;;;18.80;59.30;;;;;;6148702;23;20150;-81
2021/05/17 10:03:58;;;;;;;13.70;5.85;;;18.80;59.40;;;;;;6123682;23;20139;-83
2021/05/17 10:06:28;;;;;;;14.50;6.18;;;18.80;59.30;;;;;;6149962;23;20183;-82
2021/05/17 10:08:58;;;;;;;12.98;6.30;;;18.90;59.20;;;;;;6125624;23;20150;-81
2021/05/17 10:11:25;;;;;;;14.88;6.10;;;18.90;59.20;;;;;;6125048;23;20205;-80
2021/05/17 10:13:51;;;;;;;12.85;6.72;;;18.90;59.20;;;;;;6150061;23;20131;-81
2021/05/17 10:16:21;;;;;;;10.90;6.18;;;18.90;59.20;;;;;;6124688;23;20154;-81
2021/05/17 10:18:48;;;;;;;11.35;5.93;;;18.90;59.30;;;;;;6149372;23;20159;-81
2021/05/17 10:21:29;;;;;;;11.23;6.13;;;18.90;59.30;;;;;;6149875;23;20143;-82
2021/05/17 10:23:55;;;;;;;9.52;6.13;;;18.80;59.40;;;;;;6149883;23;20146;-82
2021/05/17 10:26:26;;;;;;;12.63;6.40;;;18.80;59.30;;;;;;6149519;23;20198;-80
2021/05/17 10:29:00;;;;;;;12.43;6.20;;;18.90;59.30;;;;;;6175214;23;20166;-80
2021/05/17 10:31:29;;;;;;;12.25;6.22;;;18.80;59.40;;;;;;6151407;23;20142;-81
2021/05/17 10:34:03;;;;;;;11.82;5.68;;;18.90;59.40;;;;;;6151284;23;20278;-81
2021/05/17 10:36:53;;;;;;;12.63;6.20;;;18.80;59.40;;;;;;6127150;23;20146;-80
2021/05/17 10:39:34;;;;;;;9.50;6.20;;;18.80;59.40;;;;;;6152064;23;20157;-82
2021/05/17 10:48:16;;;;;;;11.55;6.15;;;18.80;59.40;;;;;;6201888;23;20182;-81
2021/05/17 10:51:11;;;;;;;12.57;6.30;;;18.90;59.40;;;;;;6175223;23;20151;-83
2021/05/17 10:53:53;;;;;;;8.38;5.18;;;18.90;59.30;;;;;;6175547;23;20590;-83
2021/05/17 10:56:43;;;;;;;9.20;6.22;;;18.90;59.30;;;;;;6151254;23;20147;-84
2021/05/17 11:02:10;;;;;;;9.38;5.53;;;18.90;59.30;;;;;;6158796;23;20247;-82
2021/05/17 11:04:41;;;;;;;11.13;5.70;;;18.90;59.30;;;;;;6154092;23;20143;-82
2021/05/17 11:07:10;;;;;;;13.55;5.75;;;18.90;59.20;;;;;;6151016;23;20645;-82
2021/05/17 11:09:43;;;;;;;9.07;6.13;;;18.90;59.20;;;;;;6200927;23;20198;-83
2021/05/17 11:12:26;;;;;;;9.82;5.65;;;18.90;59.20;;;;;;6176123;23;20661;-82
2021/05/17 11:15:15;;;;;;;11.95;6.07;;;18.90;59.20;;;;;;6175140;23;20135;-81
2021/05/17 11:18:06;;;;;;;7.80;5.78;;;18.90;59.30;;;;;;6174955;23;20518;-82
2021/05/17 11:20:47;;;;;;;10.02;5.82;;;18.90;59.10;;;;;;6175455;23;20134;-82
2021/05/17 11:23:18;;;;;;;11.43;5.75;;;18.90;59.20;;;;;;6201407;23;20163;-82
2021/05/17 11:25:57;;;;;;;8.25;5.88;;;18.90;59.00;;;;;;6174527;23;20166;-82
2021/05/17 11:28:43;;;;;;;10.13;5.90;;;18.90;58.90;;;;;;6127348;23;20147;-82
2021/05/17 11:31:26;;;;;;;11.25;6.00;;;19.00;58.80;;;;;;6175079;23;20138;-81
2021/05/17 11:33:58;;;;;;;9.70;6.38;;;19.00;59.00;;;;;;6201049;23;20693;-81
2021/05/17 11:36:29;;;;;;;6.97;5.93;;;19.00;59.10;;;;;;6127361;23;20151;-82
2021/05/17 11:39:31;;;;;;;8.88;5.75;;;19.00;58.90;;;;;;6175319;23;20158;-82
2021/05/17 11:42:00;;;;;;;9.43;5.97;;;19.00;58.90;;;;;;6175544;23;20145;-83
2021/05/17 11:44:29;;;;;;;10.60;5.93;;;18.90;59.10;;;;;;6174516;23;20153;-82
2021/05/17 11:47:14;;;;;;;9.52;5.75;;;19.00;59.00;;;;;;6175225;23;20177;-82
2021/05/17 11:49:43;;;;;;;12.27;5.90;;;19.00;58.90;;;;;;6175876;23;20210;-82
2021/05/17 11:52:30;;;;;;;10.82;6.18;;;19.00;58.80;;;;;;6175921;23;20194;-82
2021/05/17 11:55:02;;;;;;;10.85;5.72;;;18.90;58.90;;;;;;6172298;23;20142;-82
2021/05/17 11:57:35;;;;;;;9.23;5.30;;;19.00;59.00;;;;;;6174428;23;20132;-84
2021/05/17 12:00:22;;;;;;;9.73;6.38;;;19.00;58.90;;;;;;6175299;23;20127;-83
2021/05/17 12:02:50;;;;;;;8.30;6.00;;;19.00;58.80;;;;;;6150719;23;20173;-82
2021/05/17 12:05:16;;;;;;;10.20;5.80;;;19.00;58.90;;;;;;6124791;23;20154;-83
2021/05/17 12:07:46;;;;;;;9.43;5.78;;;19.00;58.90;;;;;;6125407;23;20210;-83
2021/05/17 12:10:16;;;;;;;7.93;5.45;;;19.00;58.90;;;;;;6174451;23;20136;-82
2021/05/17 12:12:44;;;;;;;10.15;5.93;;;18.90;58.80;;;;;;6150925;23;20131;-82
2021/05/17 12:15:13;;;;;;;9.18;6.00;;;19.00;58.80;;;;;;6150943;23;20131;-83
2021/05/17 12:17:45;;;;;;;9.70;5.80;;;19.00;58.90;;;;;;6175940;23;20135;-82
2021/05/17 12:20:14;;;;;;;9.90;5.68;;;19.00;59.00;;;;;;6125608;23;20518;-83
2021/05/17 12:22:44;;;;;;;9.13;5.88;;;19.00;58.90;;;;;;6126216;23;20163;-83
2021/05/17 12:25:14;;;;;;;9.25;5.63;;;19.00;58.90;;;;;;6174962;23;20135;-83
2021/05/17 12:27:41;;;;;;;10.15;6.18;;;19.00;58.90;;;;;;6150851;23;20170;-83
2021/05/17 12:30:10;;;;;;;11.48;6.50;;;19.00;58.90;;;;;;6125884;23;20197;-84
2021/05/17 12:32:51;;;;;;;11.23;6.03;;;18.90;59.70;;;;;;6124679;23;20166;-82
2021/05/17 12:35:29;;;;;;;8.75;5.78;;;18.90;58.90;;;;;;6127564;23;20198;-82
2021/05/17 12:37:59;;;;;;;8.07;5.60;;;18.90;58.80;;;;;;6125961;23;20181;-83
2021/05/17 12:40:29;;;;;;;8.98;5.85;;;19.00;59.00;;;;;;6150649;23;20131;-85
2021/05/17 12:42:57;;;;;;;9.80;5.90;;;19.00;58.70;;;;;;6174616;23;20149;-82
2021/05/17 12:45:25;;;;;;;9.73;5.22;;;19.00;58.80;;;;;;6174927;23;20208;-83
2021/05/17 12:47:59;;;;;;;7.88;5.35;;;19.00;58.80;;;;;;6149756;23;20202;-83
2021/05/17 12:50:33;;;;;;;7.82;5.20;;;19.00;58.70;;;;;;6149355;23;20138;-83
2021/05/17 12:53:08;;;;;;;9.20;5.40;;;19.00;58.50;;;;;;6150939;23;20127;-82
2021/05/17 12:55:44;;;;;;;7.25;5.38;;;19.00;59.30;;;;;;6172826;23;20142;-83
2021/05/17 12:58:12;;;;;;;6.72;5.22;;;19.00;58.70;;;;;;6173862;23;20147;-83
2021/05/17 13:00:45;;;;;;;9.68;5.50;;;19.00;58.70;;;;;;6148046;23;20146;-84
2021/05/17 13:03:25;;;;;;;7.55;5.35;;;19.00;58.80;;;;;;6148431;23;20189;-83
2021/05/17 13:06:15;;;;;;;6.80;5.13;;;19.00;58.80;;;;;;6200247;23;20261;-83
2021/05/17 13:08:40;;;;;;;7.63;5.53;;;19.00;58.90;;;;;;6172453;23;20158;-83
2021/05/17 13:11:08;;;;;;;8.93;5.53;;;19.00;58.90;;;;;;6173414;23;20181;-83
2021/05/17 13:13:59;;;;;;;9.95;5.72;;;19.00;58.80;;;;;;6148446;23;20138;-83
2021/05/17 13:16:37;;;;;;;8.27;5.43;;;19.00;58.80;;;;;;6174146;23;20139;-83
2021/05/17 13:19:43;;;;;;;6.60;5.78;;;19.00;58.70;;;;;;6174021;23;20229;-83
2021/05/17 13:23:17;;;;;;;8.73;5.95;;;19.00;58.70;;;;;;6179014;23;20146;-81
2021/05/17 13:31:11;;;;;;;9.25;5.53;;;19.00;58.70;;;;;;6187440;23;20196;-80
2021/05/17 13:33:50;;;;;;;8.43;5.28;;;19.00;58.80;;;;;;6138041;23;20632;-79
2021/05/17 13:36:31;;;;;;;7.93;5.55;;;19.00;58.70;;;;;;6187078;23;20142;-80
2021/05/17 13:38:57;;;;;;;9.18;5.97;;;19.00;58.60;;;;;;6159676;23;20139;-79
2021/05/17 13:41:25;;;;;;;9.10;5.15;;;19.00;58.60;;;;;;6186731;23;20142;-79
2021/05/17 13:43:51;;;;;;;7.88;5.72;;;19.00;58.50;;;;;;6136152;23;20205;-79
2021/05/17 13:46:17;;;;;;;7.30;5.43;;;19.00;58.50;;;;;;6135004;23;20537;-80
2021/05/17 13:48:52;;;;;;;8.20;5.38;;;19.00;58.50;;;;;;6186071;23;20626;-79
2021/05/17 13:51:20;;;;;;;7.18;5.18;;;19.00;58.40;;;;;;6187186;23;20139;-80
2021/05/17 13:53:47;;;;;;;8.02;5.20;;;19.00;58.40;;;;;;6186798;23;20139;-80